Time;durP1;ratioP1;P1;durP2;ratioP2;P2;SDS_P1;SDS_P2;PMS_P1;PMS_P2;Temp;Humidity;BMP_temperature;BMP_pressure;BME280_temperature;BME280_humidity;BME280_pressure;Samples;Min_cycle;Max_cycle;Signal;HPM_P1;HPM_P2
2023/07/14 00:01:49;;;;;;;;;;;;;;;18.84;57.23;98872.97;5095691;28;19918;-45
2023/07/14 00:04:16;;;;;;;;;;;;;;;18.80;57.68;98873.72;5094454;28;19916;-46
2023/07/14 00:06:43;;;;;;;;;;;;;;;18.72;57.93;98870.41;5095639;28;20297;-45
2023/07/14 00:09:29;;;;;;;;;;;;;;;18.65;58.50;98861.00;5095541;28;19919;-45
2023/07/14 00:11:55;;;;;;;;;;;;;;;18.63;58.19;98861.25;5095108;28;19939;-46
2023/07/14 00:14:21;;;;;;;;;;;;;;;18.51;58.16;98852.59;5095521;28;20290;-45
2023/07/14 00:16:46;;;;;;;;;;;;;;;18.47;58.61;98857.63;5095444;28;19969;-45
2023/07/14 00:19:13;;;;;;;;;;;;;;;18.71;58.37;98862.69;5094135;28;19977;-45
2023/07/14 00:21:39;;;;;;;;;;;;;;;18.79;58.40;98854.28;5094038;28;19915;-46
2023/07/14 00:24:11;;;;;;;;;;;;;;;18.89;58.61;98849.06;5095372;28;19912;-46
2023/07/14 00:26:37;;;;;;;;;;;;;;;18.95;57.98;98856.06;5095314;28;19916;-45
2023/07/14 00:29:21;;;;;;;;;;;;;;;18.95;58.23;98850.75;5094142;28;19958;-45
2023/07/14 00:31:47;;;;;;;;;;;;;;;19.12;57.97;98850.63;5095175;28;19935;-46
2023/07/14 00:34:12;;;;;;;;;;;;;;;19.22;57.55;98841.94;5093278;28;19916;-45
2023/07/14 00:36:37;;;;;;;;;;;;;;;19.19;57.51;98849.63;5093754;28;19959;-45
2023/07/14 00:39:03;;;;;;;;;;;;;;;19.19;57.59;98847.75;5095091;28;19923;-46
2023/07/14 00:41:28;;;;;;;;;;;;;;;19.23;57.18;98850.72;5095202;28;19919;-46
2023/07/14 00:43:54;;;;;;;;;;;;;;;19.38;57.43;98844.72;5094914;28;20444;-46
2023/07/14 00:46:27;;;;;;;;;;;;;;;19.26;56.77;98848.38;5093614;28;20282;-45
2023/07/14 00:48:58;;;;;;;;;;;;;;;18.89;56.80;98849.06;5094822;28;19912;-46
2023/07/14 00:51:25;;;;;;;;;;;;;;;18.43;57.74;98843.25;5094806;28;19971;-46
2023/07/14 00:53:51;;;;;;;;;;;;;;;17.98;58.57;98852.22;5095069;28;20006;-46
2023/07/14 00:56:20;;;;;;;;;;;;;;;17.78;59.16;98853.47;5093364;28;19935;-46
2023/07/14 00:58:49;;;;;;;;;;;;;;;17.85;59.78;98853.38;5093353;28;19912;-46
2023/07/14 01:01:21;;;;;;;;;;;;;;;18.04;59.44;98842.47;5094590;28;19923;-46
2023/07/14 01:03:47;;;;;;;;;;;;;;;18.09;59.60;98845.16;5094579;28;19916;-45
2023/07/14 01:06:16;;;;;;;;;;;;;;;18.02;59.72;98844.56;5093178;28;19912;-46
2023/07/14 01:08:53;;;;;;;;;;;;;;;17.91;59.61;98847.06;5093045;28;19918;-45
2023/07/14 01:11:21;;;;;;;;;;;;;;;17.77;60.40;98837.81;5094391;28;19912;-46
2023/07/14 01:13:47;;;;;;;;;;;;;;;17.74;60.64;98835.63;5093102;28;19918;-45
2023/07/14 01:16:18;;;;;;;;;;;;;;;17.86;61.16;98827.63;5094343;28;20375;-45
2023/07/14 01:18:44;;;;;;;;;;;;;;;18.13;60.78;98825.88;5093073;28;19998;-46
2023/07/14 01:21:11;;;;;;;;;;;;;;;18.35;60.47;98820.56;5094240;28;19912;-45
2023/07/14 01:23:50;;;;;;;;;;;;;;;18.52;59.88;98814.38;5094154;28;19916;-45
2023/07/14 01:26:23;;;;;;;;;;;;;;;18.48;59.67;98815.91;5092839;28;19969;-46
2023/07/14 01:28:48;;;;;;;;;;;;;;;18.37;59.28;98817.63;5094030;28;19912;-45
2023/07/14 01:31:17;;;;;;;;;;;;;;;18.16;59.75;98812.06;5093987;28;20454;-45
2023/07/14 01:33:42;;;;;;;;;;;;;;;17.89;60.04;98808.56;5092371;28;19912;-45
2023/07/14 01:36:08;;;;;;;;;;;;;;;17.63;60.53;98810.81;5092631;28;20278;-46
2023/07/14 01:38:34;;;;;;;;;;;;;;;17.50;61.29;98803.16;5092586;28;20056;-45
2023/07/14 01:41:00;;;;;;;;;;;;;;;17.45;61.49;98816.38;5093748;28;19934;-45
2023/07/14 01:43:26;;;;;;;;;;;;;;;17.33;62.04;98803.97;5093851;28;19968;-45
2023/07/14 01:45:54;;;;;;;;;;;;;;;17.33;62.28;98798.69;5093024;28;19998;-45
2023/07/14 01:48:22;;;;;;;;;;;;;;;17.29;62.32;98802.84;5093683;28;19918;-45
2023/07/14 01:50:50;;;;;;;;;;;;;;;17.25;62.61;98791.13;5092370;28;19920;-46
2023/07/14 01:53:20;;;;;;;;;;;;;;;17.27;62.69;98789.03;5093889;28;20267;-46
2023/07/14 01:55:46;;;;;;;;;;;;;;;17.23;62.55;98790.56;5093832;28;19916;-45
2023/07/14 01:58:15;;;;;;;;;;;;;;;17.22;63.08;98793.44;5093535;28;19916;-46
2023/07/14 02:00:41;;;;;;;;;;;;;;;17.15;63.27;98790.97;5093436;28;19958;-45
2023/07/14 02:03:09;;;;;;;;;;;;;;;16.98;63.50;98785.63;5093478;28;19912;-45
2023/07/14 02:05:36;;;;;;;;;;;;;;;16.89;63.79;98793.19;5093342;28;19916;-46
2023/07/14 02:08:03;;;;;;;;;;;;;;;16.95;63.85;98781.63;5092059;28;19912;-45
2023/07/14 02:10:29;;;;;;;;;;;;;;;16.84;63.85;98784.31;5093466;28;19912;-45
2023/07/14 02:12:55;;;;;;;;;;;;;;;16.64;63.83;98784.72;5091937;28;19916;-45
2023/07/14 02:15:24;;;;;;;;;;;;;;;16.42;64.52;98779.28;5093144;28;19916;-45
2023/07/14 02:17:50;;;;;;;;;;;;;;;16.26;65.47;98775.53;5092178;28;19966;-45
2023/07/14 02:20:36;;;;;;;;;;;;;;;16.08;65.43;98779.97;5093081;28;19916;-45
2023/07/14 02:23:04;;;;;;;;;;;;;;;16.12;66.18;98775.81;5092709;28;19935;-46
2023/07/14 02:25:41;;;;;;;;;;;;;;;16.26;66.18;98772.88;5091966;28;19916;-45
2023/07/14 02:28:09;;;;;;;;;;;;;;;16.44;66.04;98766.63;5091726;28;19914;-45
2023/07/14 02:30:36;;;;;;;;;;;;;;;16.61;66.18;98758.72;5091636;28;20018;-45
2023/07/14 02:33:11;;;;;;;;;;;;;;;16.65;65.49;98757.22;5091616;28;20025;-45
2023/07/14 02:35:48;;;;;;;;;;;;;;;16.49;65.09;98756.91;5092508;28;20003;-45
2023/07/14 02:38:15;;;;;;;;;;;;;;;16.48;65.44;98762.44;5091491;28;19912;-45
2023/07/14 02:40:45;;;;;;;;;;;;;;;16.54;65.47;98764.16;5092738;28;20298;-45
2023/07/14 02:43:14;;;;;;;;;;;;;;;16.69;65.39;98756.50;5092754;28;19912;-45
2023/07/14 02:45:44;;;;;;;;;;;;;;;16.49;65.02;98751.63;5091362;28;19912;-45
2023/07/14 02:48:12;;;;;;;;;;;;;;;16.34;65.51;98752.16;5091694;28;20400;-45
2023/07/14 02:50:37;;;;;;;;;;;;;;;16.26;65.58;98754.34;5092526;28;19969;-45
2023/07/14 02:53:03;;;;;;;;;;;;;;;16.24;66.04;98743.19;5091320;28;19916;-45
2023/07/14 02:55:28;;;;;;;;;;;;;;;16.24;66.10;98753.78;5092432;28;20003;-45
2023/07/14 02:57:54;;;;;;;;;;;;;;;16.13;65.99;98748.28;5091166;28;19923;-45
2023/07/14 03:00:19;;;;;;;;;;;;;;;16.13;66.02;98744.84;5091129;28;20347;-45
2023/07/14 03:02:45;;;;;;;;;;;;;;;16.08;66.35;98748.22;5092433;28;19912;-45
2023/07/14 03:05:13;;;;;;;;;;;;;;;15.98;66.36;98751.44;5091139;28;19944;-45
2023/07/14 03:07:39;;;;;;;;;;;;;;;15.97;66.47;98749.81;5092413;28;20381;-45
2023/07/14 03:10:05;;;;;;;;;;;;;;;16.02;66.41;98741.22;5092295;28;19916;-45
2023/07/14 03:12:30;;;;;;;;;;;;;;;16.11;66.51;98745.06;5091383;28;19965;-45
2023/07/14 03:14:56;;;;;;;;;;;;;;;16.24;66.75;98748.50;5092344;28;19999;-45
2023/07/14 03:17:21;;;;;;;;;;;;;;;16.31;66.35;98752.63;5092246;28;19912;-45
2023/07/14 03:19:47;;;;;;;;;;;;;;;16.28;66.37;98758.41;5091012;28;19912;-45
2023/07/14 03:22:12;;;;;;;;;;;;;;;16.02;66.50;98750.97;5074114;28;19912;-45
2023/07/14 03:24:39;;;;;;;;;;;;;;;15.71;67.33;98752.94;5092476;28;19912;-45
2023/07/14 03:27:04;;;;;;;;;;;;;;;15.46;68.34;98753.22;5090940;28;19916;-45
2023/07/14 03:29:30;;;;;;;;;;;;;;;15.28;69.46;98747.00;5092362;28;19916;-45
2023/07/14 03:31:55;;;;;;;;;;;;;;;15.20;69.87;98752.63;5090905;28;20036;-45
2023/07/14 03:34:22;;;;;;;;;;;;;;;15.16;70.33;98748.81;5095887;28;19920;-45
2023/07/14 03:36:48;;;;;;;;;;;;;;;15.14;70.64;98753.53;5092092;28;19922;-45
2023/07/14 03:39:24;;;;;;;;;;;;;;;15.10;70.72;98755.03;5092127;28;20022;-45
2023/07/14 03:41:50;;;;;;;;;;;;;;;15.15;70.70;98755.97;5092107;28;19912;-45
2023/07/14 03:44:15;;;;;;;;;;;;;;;15.40;70.49;98762.06;5090779;28;19981;-45
2023/07/14 03:46:41;;;;;;;;;;;;;;;15.68;70.41;98764.81;5090774;28;19912;-45
2023/07/14 03:49:06;;;;;;;;;;;;;;;16.00;70.05;98767.09;5090631;28;19912;-45
2023/07/14 03:51:32;;;;;;;;;;;;;;;16.35;69.34;98760.91;5091962;28;19912;-45
2023/07/14 03:53:57;;;;;;;;;;;;;;;16.55;68.55;98755.19;5090684;28;19912;-45
2023/07/14 03:56:23;;;;;;;;;;;;;;;16.58;67.99;98760.00;5091935;28;19912;-45
2023/07/14 03:58:48;;;;;;;;;;;;;;;16.81;68.10;98760.94;5090592;28;20297;-45
2023/07/14 04:01:14;;;;;;;;;;;;;;;17.03;66.98;98751.25;5091921;28;19916;-45
2023/07/14 04:03:39;;;;;;;;;;;;;;;17.22;66.65;98751.81;5091861;28;19959;-45
2023/07/14 04:06:05;;;;;;;;;;;;;;;17.35;66.05;98748.03;5073738;28;20430;-45
2023/07/14 04:08:37;;;;;;;;;;;;;;;17.54;65.57;98746.72;5090904;28;20351;-45
2023/07/14 04:11:03;;;;;;;;;;;;;;;17.78;64.93;98751.81;5094346;28;19965;-45
2023/07/14 04:13:30;;;;;;;;;;;;;;;17.85;64.45;98752.47;5095626;28;19955;-45
2023/07/14 04:15:56;;;;;;;;;;;;;;;17.83;63.90;98748.41;5095552;28;19919;-45
2023/07/14 04:18:21;;;;;;;;;;;;;;;17.84;63.59;98739.44;5094187;28;19912;-45
2023/07/14 04:20:47;;;;;;;;;;;;;;;17.81;63.18;98740.72;5095479;28;19923;-46
2023/07/14 04:23:12;;;;;;;;;;;;;;;17.81;63.30;98729.28;5095430;28;19912;-45
2023/07/14 04:25:38;;;;;;;;;;;;;;;17.76;62.85;98728.16;5095347;28;19911;-45
2023/07/14 04:28:03;;;;;;;;;;;;;;;17.71;62.83;98727.31;5094044;28;19912;-45
2023/07/14 04:30:28;;;;;;;;;;;;;;;17.67;62.62;98720.88;5095160;28;19912;-45
2023/07/14 04:32:56;;;;;;;;;;;;;;;17.45;62.53;98721.66;5095195;28;20458;-45
2023/07/14 04:35:22;;;;;;;;;;;;;;;17.14;63.00;98720.38;5092964;28;20301;-45
2023/07/14 04:37:48;;;;;;;;;;;;;;;17.27;62.86;98722.72;5094254;28;19916;-45
2023/07/14 04:40:14;;;;;;;;;;;;;;;17.74;61.82;98722.28;5094111;28;19920;-46
2023/07/14 04:42:39;;;;;;;;;;;;;;;18.33;60.13;98726.19;5093870;28;19916;-45
2023/07/14 04:45:05;;;;;;;;;;;;;;;18.85;58.82;98735.47;5093816;28;20309;-45
2023/07/14 04:47:30;;;;;;;;;;;;;;;19.49;58.13;98735.41;5093814;28;19915;-46
2023/07/14 04:49:56;;;;;;;;;;;;;;;20.29;56.32;98726.47;5092412;28;20396;-45
2023/07/14 04:52:21;;;;;;;;;;;;;;;20.60;54.00;98724.69;5092398;28;20347;-45
2023/07/14 04:54:47;;;;;;;;;;;;;;;20.10;54.61;98726.13;5093695;28;19912;-46
2023/07/14 04:57:12;;;;;;;;;;;;;;;20.08;56.08;98725.59;5092299;28;19916;-46
2023/07/14 04:59:38;;;;;;;;;;;;;;;20.24;55.38;98737.09;5093660;28;19912;-46
2023/07/14 05:02:05;;;;;;;;;;;;;;;20.29;55.00;98737.91;5093566;28;19912;-45
2023/07/14 05:04:31;;;;;;;;;;;;;;;20.58;54.09;98739.31;5093436;28;19919;-46
2023/07/14 05:06:56;;;;;;;;;;;;;;;21.28;53.14;98742.28;5092201;28;19958;-45
2023/07/14 05:09:23;;;;;;;;;;;;;;;21.96;50.82;98725.84;5092051;28;19951;-46
2023/07/14 05:11:48;;;;;;;;;;;;;;;22.32;49.58;98725.72;5093426;28;19922;-46
2023/07/14 05:14:14;;;;;;;;;;;;;;;22.81;48.72;98726.72;5093422;28;20365;-45
2023/07/14 05:16:39;;;;;;;;;;;;;;;23.57;47.85;98722.56;5093323;28;20400;-45
2023/07/14 05:19:05;;;;;;;;;;;;;;;24.30;45.94;98723.28;5092043;28;19955;-45
2023/07/14 05:21:30;;;;;;;;;;;;;;;25.03;44.75;98721.94;5091999;28;20290;-46
2023/07/14 05:23:56;;;;;;;;;;;;;;;25.60;42.79;98723.63;5093228;28;19935;-46
2023/07/14 05:26:21;;;;;;;;;;;;;;;25.77;43.08;98725.69;5093151;28;20014;-46
2023/07/14 05:28:46;;;;;;;;;;;;;;;26.63;41.92;98723.06;5093105;28;19965;-46
2023/07/14 05:31:12;;;;;;;;;;;;;;;26.98;40.56;98725.22;5093058;28;19916;-46
2023/07/14 05:33:38;;;;;;;;;;;;;;;27.30;39.44;98724.94;5092097;28;19919;-46
2023/07/14 05:36:04;;;;;;;;;;;;;;;27.49;39.08;98713.94;5043058;28;1439079;-46
2023/07/14 05:38:29;;;;;;;;;;;;;;;27.94;38.90;98722.97;5092595;28;19958;-46
2023/07/14 05:40:55;;;;;;;;;;;;;;;28.89;36.66;98719.50;5092528;28;19919;-46
2023/07/14 05:43:20;;;;;;;;;;;;;;;28.39;36.49;98711.91;5093856;28;19938;-46
2023/07/14 05:45:47;;;;;;;;;;;;;;;27.50;37.35;98722.81;5093841;28;20371;-46
2023/07/14 05:48:14;;;;;;;;;;;;;;;26.84;38.61;98720.72;5093815;28;19912;-46
2023/07/14 05:50:40;;;;;;;;;;;;;;;26.44;39.02;98722.41;5093665;28;20011;-46
2023/07/14 05:53:06;;;;;;;;;;;;;;;26.10;39.83;98719.13;5093673;28;19919;-46
2023/07/14 05:55:31;;;;;;;;;;;;;;;26.40;40.06;98710.66;5092248;28;19916;-46
2023/07/14 05:57:56;;;;;;;;;;;;;;;26.72;39.21;98709.66;5092276;28;20049;-47
2023/07/14 06:00:22;;;;;;;;;;;;;;;27.31;38.63;98712.28;5092179;28;19930;-46
2023/07/14 06:02:50;;;;;;;;;;;;;;;28.51;37.02;98708.59;5092177;28;20270;-46
2023/07/14 06:05:17;;;;;;;;;;;;;;;28.81;36.30;98713.00;5093295;28;19911;-46
2023/07/14 06:07:42;;;;;;;;;;;;;;;28.61;36.13;98703.66;5093327;28;19919;-46
2023/07/14 06:10:09;;;;;;;;;;;;;;;28.53;36.16;98704.44;5093264;28;19912;-46
2023/07/14 06:12:35;;;;;;;;;;;;;;;28.27;36.65;98699.84;5093565;28;19994;-46
2023/07/14 06:15:01;;;;;;;;;;;;;;;29.02;36.19;98690.72;5093183;28;19977;-46
2023/07/14 06:17:27;;;;;;;;;;;;;;;30.02;35.04;98694.75;5093188;28;19955;-46
2023/07/14 06:19:52;;;;;;;;;;;;;;;29.74;33.75;98690.94;5091905;28;19951;-46
2023/07/14 06:22:20;;;;;;;;;;;;;;;29.45;34.15;98685.16;5091744;28;20328;-46
2023/07/14 06:24:46;;;;;;;;;;;;;;;29.36;34.00;98683.59;5093138;28;20002;-46
2023/07/14 06:27:11;;;;;;;;;;;;;;;29.95;33.95;98680.94;5091695;28;19995;-46
2023/07/14 06:29:36;;;;;;;;;;;;;;;31.05;32.75;98674.41;5092877;28;20373;-46
2023/07/14 06:32:02;;;;;;;;;;;;;;;32.10;31.35;98678.47;5092644;28;20267;-46
2023/07/14 06:34:27;;;;;;;;;;;;;;;32.95;29.86;98673.81;5091237;28;20385;-47
2023/07/14 06:36:53;;;;;;;;;;;;;;;33.53;29.66;98676.78;5091644;28;19965;-46
2023/07/14 06:39:22;;;;;;;;;;;;;;;34.57;28.81;98676.28;5092793;28;19916;-46
2023/07/14 06:41:47;;;;;;;;;;;;;;;34.91;28.09;98678.44;5091379;28;19994;-46
2023/07/14 06:44:13;;;;;;;;;;;;;;;35.76;27.38;98673.59;5092754;28;20004;-46
2023/07/14 06:46:39;;;;;;;;;;;;;;;36.35;25.02;98671.22;5091390;28;19912;-46
2023/07/14 06:49:04;;;;;;;;;;;;;;;36.53;25.71;98678.84;5092621;28;19923;-46
2023/07/14 06:51:30;;;;;;;;;;;;;;;36.78;25.16;98687.31;5091311;28;19923;-46
2023/07/14 06:53:56;;;;;;;;;;;;;;;37.19;24.98;98690.06;5091358;28;19919;-46
2023/07/14 06:56:21;;;;;;;;;;;;;;;37.97;24.49;98687.06;5091282;28;20414;-46
2023/07/14 06:58:46;;;;;;;;;;;;;;;38.90;23.42;98694.81;5092534;28;19965;-46
2023/07/14 07:01:12;;;;;;;;;;;;;;;39.69;22.87;98681.06;5091226;28;19923;-47
2023/07/14 07:03:37;;;;;;;;;;;;;;;40.01;22.32;98680.22;5092485;28;19916;-47
2023/07/14 07:06:03;;;;;;;;;;;;;;;39.92;22.46;98686.16;5091138;28;19918;-47
2023/07/14 07:08:29;;;;;;;;;;;;;;;40.23;22.29;98680.91;5092367;28;19957;-47
2023/07/14 07:10:55;;;;;;;;;;;;;;;40.67;21.52;98685.00;5091038;28;19924;-47
2023/07/14 07:13:20;;;;;;;;;;;;;;;40.51;21.14;98690.22;5092401;28;20014;-47
2023/07/14 07:15:46;;;;;;;;;;;;;;;40.52;20.64;98694.53;5091046;28;19912;-47
2023/07/14 07:18:11;;;;;;;;;;;;;;;40.77;20.49;98688.91;5092281;28;20397;-47
2023/07/14 07:20:38;;;;;;;;;;;;;;;40.91;20.18;98696.25;5091015;28;20293;-47
2023/07/14 07:23:03;;;;;;;;;;;;;;;40.84;19.47;98690.81;5092301;28;19912;-47
2023/07/14 07:25:29;;;;;;;;;;;;;;;40.47;19.45;98686.72;5090910;28;19919;-47
2023/07/14 07:27:54;;;;;;;;;;;;;;;40.19;19.54;98693.88;5092220;28;19928;-47
2023/07/14 07:30:20;;;;;;;;;;;;;;;39.73;20.06;98697.56;5091093;28;19912;-47
2023/07/14 07:32:46;;;;;;;;;;;;;;;39.02;20.75;98707.41;5090887;28;20007;-46
2023/07/14 07:35:12;;;;;;;;;;;;;;;37.93;21.19;98708.19;5091924;28;19969;-47
2023/07/14 07:37:38;;;;;;;;;;;;;;;36.84;22.84;98696.75;5090832;28;19916;-46
2023/07/14 07:40:04;;;;;;;;;;;;;;;36.31;23.57;98689.53;5090746;28;19958;-47
2023/07/14 07:42:29;;;;;;;;;;;;;;;36.10;23.76;98689.25;5090820;28;19918;-47
2023/07/14 07:44:55;;;;;;;;;;;;;;;35.82;24.20;98681.47;5094919;28;20301;-46
2023/07/14 07:47:20;;;;;;;;;;;;;;;35.48;24.16;98681.38;5094796;28;19912;-47
2023/07/14 07:49:46;;;;;;;;;;;;;;;35.29;24.93;98682.22;5094694;28;19959;-46
2023/07/14 07:52:12;;;;;;;;;;;;;;;35.59;25.20;98676.81;5095870;28;19912;-47
2023/07/14 07:54:38;;;;;;;;;;;;;;;35.98;25.05;98673.91;5094651;28;20010;-47
2023/07/14 07:57:06;;;;;;;;;;;;;;;36.16;24.87;98671.38;5094570;28;19962;-47
2023/07/14 07:59:32;;;;;;;;;;;;;;;36.71;24.22;98663.44;5095874;28;19916;-47
2023/07/14 08:01:57;;;;;;;;;;;;;;;37.44;23.03;98662.09;5094524;28;19919;-47
2023/07/14 08:04:23;;;;;;;;;;;;;;;37.77;22.91;98655.63;5094499;28;20003;-47
2023/07/14 08:06:48;;;;;;;;;;;;;;;38.43;22.46;98654.75;5094413;28;20469;-47
2023/07/14 08:09:14;;;;;;;;;;;;;;;39.09;21.50;98654.47;5094369;28;20301;-47
2023/07/14 08:11:39;;;;;;;;;;;;;;;39.65;20.96;98658.31;5095650;28;19919;-47
2023/07/14 08:14:06;;;;;;;;;;;;;;;40.22;20.95;98667.56;5094262;28;19915;-47
2023/07/14 08:16:32;;;;;;;;;;;;;;;40.60;20.85;98663.03;5094207;28;20472;-47
2023/07/14 08:18:59;;;;;;;;;;;;;;;41.16;20.04;98662.25;5095551;28;19969;-47
2023/07/14 08:21:25;;;;;;;;;;;;;;;41.47;19.53;98649.34;5095412;28;19959;-47
2023/07/14 08:23:51;;;;;;;;;;;;;;;41.74;18.92;98652.25;5095392;28;19912;-48
2023/07/14 08:26:16;;;;;;;;;;;;;;;41.68;19.06;98640.13;5095594;28;19912;-48
2023/07/14 08:28:42;;;;;;;;;;;;;;;41.09;18.95;98639.09;5093952;28;19919;-47
2023/07/14 08:31:09;;;;;;;;;;;;;;;40.50;19.16;98641.88;5093921;28;20404;-47
2023/07/14 08:33:35;;;;;;;;;;;;;;;40.20;19.50;98639.69;5095165;28;19961;-47
2023/07/14 08:36:02;;;;;;;;;;;;;;;40.51;18.95;98635.22;5093685;28;19928;-47
2023/07/14 08:38:28;;;;;;;;;;;;;;;40.19;18.84;98633.41;5093815;28;19912;-48
2023/07/14 08:41:12;;;;;;;;;;;;;;;39.37;19.46;98626.19;5095020;28;19912;-47
2023/07/14 08:43:53;;;;;;;;;;;;;;;39.59;19.43;98615.19;5094034;28;20327;-47
2023/07/14 08:46:24;;;;;;;;;;;;;;;40.14;19.14;98618.09;5094892;28;19916;-48
2023/07/14 08:48:58;;;;;;;;;;;;;;;40.82;18.48;98607.88;5094863;28;19919;-47
2023/07/14 08:51:39;;;;;;;;;;;;;;;40.50;18.41;98603.38;5093696;28;19955;-48
2023/07/14 08:54:09;;;;;;;;;;;;;;;40.24;18.23;98610.19;5094814;28;20385;-48
2023/07/14 08:56:37;;;;;;;;;;;;;;;40.01;18.61;98599.72;5094761;28;20010;-48
2023/07/14 08:59:05;;;;;;;;;;;;;;;39.73;18.84;98590.41;5094683;28;19915;-48
2023/07/14 09:01:34;;;;;;;;;;;;;;;38.84;19.23;98589.38;5093349;28;19966;-48
2023/07/14 09:04:03;;;;;;;;;;;;;;;38.68;19.49;98600.75;5094728;28;19918;-47
2023/07/14 09:06:34;;;;;;;;;;;;;;;38.25;20.51;98597.13;5093268;28;20010;-47
2023/07/14 09:08:59;;;;;;;;;;;;;;;38.93;20.13;98591.72;5093197;28;20003;-47
2023/07/14 09:11:46;;;;;;;;;;;;;;;38.93;19.73;98589.75;5094497;28;20018;-48
2023/07/14 09:14:35;;;;;;;;;;;;;;;39.36;19.93;98588.91;5093250;28;20343;-47
2023/07/14 09:17:05;;;;;;;;;;;;;;;40.17;19.19;98586.28;5093170;28;20377;-48
2023/07/14 09:19:54;;;;;;;;;;;;;;;40.72;18.58;98587.47;5093134;28;19961;-47
2023/07/14 09:22:22;;;;;;;;;;;;;;;41.64;18.24;98593.31;5092999;28;19951;-47
2023/07/14 09:24:48;;;;;;;;;;;;;;;41.68;17.84;98594.03;5094240;28;19916;-47
2023/07/14 09:27:27;;;;;;;;;;;;;;;41.20;18.26;98586.69;5092891;28;20274;-48
2023/07/14 09:29:53;;;;;;;;;;;;;;;41.52;18.20;98580.03;5092759;28;19961;-48
2023/07/14 09:32:32;;;;;;;;;;;;;;;41.13;18.14;98581.22;5092754;28;20385;-48
2023/07/14 09:34:59;;;;;;;;;;;;;;;41.36;17.90;98579.84;5093846;28;19916;-48
2023/07/14 09:37:33;;;;;;;;;;;;;;;41.76;17.84;98575.44;5093992;28;19916;-48
2023/07/14 09:40:18;;;;;;;;;;;;;;;42.27;18.23;98568.03;5092678;28;19916;-48
2023/07/14 09:42:46;;;;;;;;;;;;;;;42.39;17.73;98563.16;5093877;28;19915;-48
2023/07/14 09:45:17;;;;;;;;;;;;;;;42.66;17.34;98563.13;5092498;28;19993;-47
2023/07/14 09:47:44;;;;;;;;;;;;;;;42.63;17.46;98561.22;5093825;28;19965;-47
2023/07/14 09:50:14;;;;;;;;;;;;;;;42.33;17.32;98556.53;5092360;28;19947;-47
2023/07/14 09:52:51;;;;;;;;;;;;;;;42.44;17.42;98552.44;5092723;28;19916;-48
2023/07/14 09:55:19;;;;;;;;;;;;;;;42.83;17.19;98556.50;5093651;28;19912;-48
2023/07/14 09:57:46;;;;;;;;;;;;;;;43.11;17.26;98546.19;5075675;28;19966;-48
2023/07/14 10:00:19;;;;;;;;;;;;;;;42.91;16.94;98548.91;5093571;28;19912;-48
2023/07/14 10:02:49;;;;;;;;;;;;;;;41.77;17.49;98554.94;5093738;28;19916;-47
2023/07/14 10:05:30;;;;;;;;;;;;;;;41.09;17.99;98541.91;5093473;28;19916;-48
2023/07/14 10:07:55;;;;;;;;;;;;;;;40.72;18.25;98540.69;5093154;28;20309;-48
2023/07/14 10:10:26;;;;;;;;;;;;;;;40.18;18.64;98541.09;5093302;28;19912;-48
2023/07/14 10:12:52;;;;;;;;;;;;;;;39.79;19.54;98536.59;5093537;28;20430;-48
2023/07/14 10:15:23;;;;;;;;;;;;;;;40.36;19.14;98532.75;5093254;28;20011;-47
2023/07/14 10:17:53;;;;;;;;;;;;;;;41.33;18.85;98529.09;5093185;28;19912;-47
2023/07/14 10:20:19;;;;;;;;;;;;;;;41.85;18.09;98523.31;5093432;28;19912;-48
2023/07/14 10:22:48;;;;;;;;;;;;;;;41.82;17.48;98520.63;5091828;28;19965;-47
2023/07/14 10:25:17;;;;;;;;;;;;;;;40.67;18.74;98522.66;5093114;28;19912;-48
2023/07/14 10:27:52;;;;;;;;;;;;;;;40.82;19.40;98528.06;5074882;28;19912;-47
2023/07/14 10:30:32;;;;;;;;;;;;;;;41.81;18.52;98517.09;5092963;28;19929;-47
2023/07/14 10:32:59;;;;;;;;;;;;;;;42.09;18.27;98517.91;5093032;28;19912;-48
2023/07/14 10:35:27;;;;;;;;;;;;;;;42.07;17.67;98526.56;5091357;28;19926;-48
2023/07/14 10:38:10;;;;;;;;;;;;;;;41.94;18.20;98506.28;5092831;28;19954;-48
2023/07/14 10:40:39;;;;;;;;;;;;;;;42.18;18.26;98506.31;5092826;28;20273;-48
2023/07/14 10:43:17;;;;;;;;;;;;;;;42.62;17.79;98501.69;5091484;28;19919;-47
2023/07/14 10:45:45;;;;;;;;;;;;;;;42.84;17.64;98499.31;5091484;28;20297;-47
2023/07/14 10:48:16;;;;;;;;;;;;;;;42.89;17.44;98502.41;5091391;28;20010;-48
2023/07/14 10:51:02;;;;;;;;;;;;;;;42.54;17.29;98503.00;5091306;28;19912;-48
2023/07/14 10:53:57;;;;;;;;;;;;;;;42.60;17.52;98485.56;5093235;28;20396;-47
2023/07/14 10:56:26;;;;;;;;;;;;;;;42.65;17.22;98479.53;5050112;28;19920;-48
2023/07/14 10:58:58;;;;;;;;;;;;;;;42.68;16.98;98475.94;5033431;28;20302;-48
2023/07/14 11:01:34;;;;;;;;;;;;;;;42.23;16.78;98470.78;5033300;28;19912;-48
2023/07/14 11:04:09;;;;;;;;;;;;;;;41.75;17.77;98471.13;5050036;28;19951;-47
2023/07/14 11:06:35;;;;;;;;;;;;;;;42.15;18.40;98463.81;5050000;28;20011;-47
2023/07/14 11:09:02;;;;;;;;;;;;;;;42.57;18.44;98469.06;5049952;28;19913;-48
2023/07/14 11:11:33;;;;;;;;;;;;;;;42.15;17.21;98476.84;5049864;28;19923;-48
2023/07/14 11:13:59;;;;;;;;;;;;;;;41.67;17.26;98467.69;5049929;28;20078;-48
2023/07/14 11:16:42;;;;;;;;;;;;;;;41.65;17.16;98472.81;5049750;28;19975;-48
2023/07/14 11:19:19;;;;;;;;;;;;;;;41.44;16.70;98466.38;5048933;28;19962;-47
2023/07/14 11:21:48;;;;;;;;;;;;;;;40.85;17.55;98461.16;5049749;28;20020;-48
2023/07/14 11:24:18;;;;;;;;;;;;;;;40.66;16.92;98468.81;5049909;28;20362;-47
2023/07/14 11:27:00;;;;;;;;;;;;;;;39.84;17.39;98455.69;5033008;28;20390;-48
2023/07/14 11:29:30;;;;;;;;;;;;;;;39.07;18.03;98449.00;5049702;28;19919;-47
2023/07/14 11:31:57;;;;;;;;;;;;;;;38.65;18.64;98444.38;5056124;28;19912;-47
2023/07/14 11:34:28;;;;;;;;;;;;;;;38.51;19.06;98447.91;5090623;28;19990;-47
2023/07/14 11:37:06;;;;;;;;;;;;;;;38.68;18.55;98438.91;5092413;28;19912;-48
2023/07/14 11:39:38;;;;;;;;;;;;;;;38.85;18.80;98442.00;5092188;28;19911;-48
2023/07/14 11:42:05;;;;;;;;;;;;;;;38.98;18.99;98451.41;5090760;28;19912;-48
2023/07/14 11:44:30;;;;;;;;;;;;;;;38.82;18.84;98440.81;5092193;28;19908;-47
2023/07/14 11:46:58;;;;;;;;;;;;;;;38.80;19.04;98439.63;5090747;28;19912;-48
2023/07/14 11:49:37;;;;;;;;;;;;;;;38.89;19.01;98429.81;5090651;28;19912;-48
2023/07/14 11:52:12;;;;;;;;;;;;;;;38.85;18.93;98433.75;5091980;28;19912;-47
2023/07/14 11:54:42;;;;;;;;;;;;;;;38.63;19.05;98428.31;5090694;28;20302;-47
2023/07/14 11:57:15;;;;;;;;;;;;;;;38.30;19.67;98424.81;5091876;28;19912;-47
2023/07/14 11:59:52;;;;;;;;;;;;;;;37.70;19.66;98429.06;5091954;28;19927;-47
2023/07/14 12:02:42;;;;;;;;;;;;;;;37.57;20.62;98406.72;5091926;28;19912;-47
2023/07/14 12:05:14;;;;;;;;;;;;;;;37.86;20.50;98416.97;5091719;28;19916;-47
2023/07/14 12:07:58;;;;;;;;;;;;;;;38.00;20.60;98413.44;5091874;28;20327;-47
2023/07/14 12:10:43;;;;;;;;;;;;;;;37.68;20.42;98414.97;5090442;28;19935;-47
2023/07/14 12:13:18;;;;;;;;;;;;;;;37.18;20.69;98421.06;5090058;28;19912;-48
2023/07/14 12:15:56;;;;;;;;;;;;;;;36.79;20.18;98409.94;5091763;28;19919;-47
2023/07/14 12:18:30;;;;;;;;;;;;;;;36.82;21.07;98408.38;5090489;28;19912;-47
2023/07/14 12:21:20;;;;;;;;;;;;;;;37.14;21.18;98414.00;5091736;28;19916;-47
2023/07/14 12:23:51;;;;;;;;;;;;;;;37.17;20.66;98405.03;5091769;28;20381;-47
2023/07/14 12:26:19;;;;;;;;;;;;;;;37.20;20.77;98398.78;5090444;28;19916;-47
2023/07/14 12:28:47;;;;;;;;;;;;;;;37.43;20.56;98390.25;5091665;28;19916;-47
2023/07/14 12:31:16;;;;;;;;;;;;;;;37.80;20.34;98386.44;5093699;28;19919;-47
2023/07/14 12:33:42;;;;;;;;;;;;;;;38.02;19.77;98389.97;5095553;28;19916;-48
2023/07/14 12:36:13;;;;;;;;;;;;;;;38.17;20.25;98397.03;5095009;28;19923;-47
2023/07/14 12:38:43;;;;;;;;;;;;;;;38.26;19.99;98377.44;5093880;28;19923;-47
2023/07/14 12:41:09;;;;;;;;;;;;;;;38.43;20.06;98383.28;5093764;28;19920;-47
2023/07/14 12:43:39;;;;;;;;;;;;;;;38.37;19.53;98374.66;5095105;28;19916;-48
2023/07/14 12:46:16;;;;;;;;;;;;;;;37.80;19.25;98377.44;5093720;28;20010;-47
2023/07/14 12:48:43;;;;;;;;;;;;;;;37.31;20.65;98383.19;5094967;28;19915;-47
2023/07/14 12:51:20;;;;;;;;;;;;;;;37.10;19.93;98372.91;5093651;28;19927;-47
2023/07/14 12:54:05;;;;;;;;;;;;;;;36.76;19.89;98358.72;5093554;28;19965;-47
2023/07/14 12:56:31;;;;;;;;;;;;;;;36.21;20.70;98373.22;5093605;28;19912;-47